LTAF Airport Information

Runway Information
Runway 05 Length 9022 ft width 148 ft
Elevation 54 ft Threshold 0 ft Heading 54
Runway 23 Length 9022 ft Width 148 ft
Elevation 65 ft Threshold 0 ft Heading 234
Airport Frequencies
Type APP Name INCIRLIK A Frequency 126.5 MHZ
Type ATIS Name Frequency 119.225 MHZ
Type GND Name Frequency 121.9 MHZ
Type TWR Name TWR Frequency 121.1 MHZ
Airport Navaids
Type VOR-DME Name Adana Frequency 112700 KHZ
Type NDB Name Adana Frequency 395 KHZ
Airport Weather Information & NOTAM
ADDS - METARS form results

(2042 UTC 23 October 2018)
Data provider http://aviationweather.gov/metar/data/
 
METAR text: LTAF 232020Z 02009KT 9999 FEW040 24/14 Q1011 NOSIG RMK RWY23 04009KT
Conditions at: LTAF (ADANA/SAKIRPASA , TR) observed 2020 UTC 23 October 2018
Temperature: 24.0°C (75°F)
Dewpoint: 14.0°C (57°F) [RH = 54%]
Pressure (altimeter): 29.85 inches Hg (1011.0 mb)
Winds: from the NNE (20 degrees) at 10 MPH (9 knots; 4.6 m/s)
Visibility: 6 or more miles (10+ km)
Ceiling: at least 12,000 feet AGL
Clouds: few clouds at 4000 feet AGL
Weather: no significant weather observed at this time

METAR text: LTAF 231950Z 02009KT 9999 SCT040 24/14 Q1011 NOSIG RMK RWY23 04008KT
Conditions at: LTAF (ADANA/SAKIRPASA , TR) observed 1950 UTC 23 October 2018
Temperature: 24.0°C (75°F)
Dewpoint: 14.0°C (57°F) [RH = 54%]
Pressure (altimeter): 29.85 inches Hg (1011.0 mb)
Winds: from the NNE (20 degrees) at 10 MPH (9 knots; 4.6 m/s)
Visibility: 6 or more miles (10+ km)
Ceiling: at least 12,000 feet AGL
Clouds: scattered clouds at 4000 feet AGL
Weather: no significant weather observed at this time

Forecast for: LTAF (ADANA/SAKIRPASA , TR)
Text: TAF LTAF 231640Z 2318/2418 03008KT 9999 SCT035
Forecast period: 1800 UTC 23 October 2018 to 1800 UTC 24 October 2018
Forecast type: FROM: standard forecast or significant change
Winds: from the NNE (30 degrees) at 9 MPH (8 knots; 4.1 m/s)
Visibility: 6 or more miles 10+ km)
Ceiling: at least 12,000 feet AGL
Clouds: scattered clouds at 3500 feet AGL
Weather: no significant weather forecast for this period
Text: TEMPO 2408/2412 -TSRA FEW025CB BKN030
Forecast period: 0800 to 1200 UTC 24 October 2018
Forecast type: TEMPORARY: The following changes expected for less than half the time period
Visibility: missing
Ceiling: 3000 feet AGL
Clouds: few clouds at 2500 feet AGL
broken clouds at 3000 feet AGL
Weather: -TSRA  (light rain associated with thunderstorm(s))